createdAt,value
2019-03-08T00:00:26.913Z,11.16
2019-03-08T00:01:07.316Z,11.17
2019-03-08T00:01:48.004Z,11.2
2019-03-08T00:02:28.623Z,11.23
2019-03-08T00:03:09.082Z,11.11
2019-03-08T00:03:49.479Z,11.12
2019-03-08T00:04:29.976Z,11.19
2019-03-08T00:05:10.944Z,11.24
2019-03-08T00:05:52.254Z,11.23
2019-03-08T00:06:32.705Z,11.17
2019-03-08T00:07:13.327Z,11.17
2019-03-08T00:07:53.766Z,11.21
2019-03-08T00:08:34.219Z,11.17
2019-03-08T00:09:14.649Z,11.24
2019-03-08T00:09:55.822Z,11.23
2019-03-08T00:10:36.328Z,11.26
2019-03-08T00:11:17.329Z,11.19
2019-03-08T00:11:58.032Z,11.23
2019-03-08T00:12:38.416Z,11.24
2019-03-08T00:13:18.891Z,11.24
2019-03-08T00:14:00.255Z,11.28
2019-03-08T00:14:40.625Z,11.31
2019-03-08T00:15:21.109Z,11.35
2019-03-08T00:16:01.551Z,11.44
2019-03-08T00:16:42.805Z,11.44
2019-03-08T00:17:23.376Z,11.41
2019-03-08T00:18:03.756Z,11.39
2019-03-08T00:18:44.275Z,11.35
2019-03-08T00:19:24.827Z,11.28
2019-03-08T00:20:06.085Z,11.31
2019-03-08T00:20:46.405Z,11.41
2019-03-08T00:21:26.863Z,11.45
2019-03-08T00:22:07.232Z,11.46
2019-03-08T00:22:47.651Z,11.49
2019-03-08T00:23:28.035Z,11.53
2019-03-08T00:24:09.265Z,11.54
2019-03-08T00:24:49.681Z,11.53
2019-03-08T00:25:30.098Z,11.56
2019-03-08T00:26:10.615Z,11.51
2019-03-08T00:26:51.046Z,11.51
2019-03-08T00:27:31.496Z,11.59
2019-03-08T00:28:12.026Z,11.62
2019-03-08T00:28:52.534Z,11.67
2019-03-08T00:29:33.190Z,11.67
2019-03-08T00:30:13.577Z,11.78
2019-03-08T00:30:54.233Z,11.64
2019-03-08T00:31:34.658Z,11.62
2019-03-08T00:32:15.219Z,11.56
2019-03-08T00:32:55.589Z,11.45
2019-03-08T00:33:36.063Z,11.36
2019-03-08T00:34:16.483Z,11.31
2019-03-08T00:34:57.578Z,11.33
2019-03-08T00:35:37.993Z,11.41
2019-03-08T00:36:18.519Z,11.41
2019-03-08T00:36:59.042Z,11.45
2019-03-08T00:37:39.723Z,11.51
2019-03-08T00:38:20.112Z,11.56
2019-03-08T00:39:00.532Z,11.51
2019-03-08T00:39:41.713Z,11.51
2019-03-08T00:40:22.090Z,11.42
2019-03-08T00:41:02.512Z,11.45
2019-03-08T00:41:42.938Z,11.35
2019-03-08T00:42:24.023Z,11.36
2019-03-08T00:43:04.667Z,11.45
2019-03-08T00:43:45.189Z,11.36
2019-03-08T00:44:25.577Z,11.41
2019-03-08T00:45:06.281Z,11.41
2019-03-08T00:45:46.673Z,11.38
2019-03-08T00:46:27.642Z,11.41
2019-03-08T00:47:08.352Z,11.3
2019-03-08T00:47:48.726Z,11.28
2019-03-08T00:48:29.197Z,11.36
2019-03-08T00:49:11.329Z,11.45
2019-03-08T00:49:51.751Z,11.41
2019-03-08T00:50:33.069Z,11.49
2019-03-08T00:51:13.409Z,11.35
2019-03-08T00:51:53.863Z,11.39
2019-03-08T00:52:34.530Z,11.33
2019-03-08T00:53:15.892Z,11.39
2019-03-08T00:53:56.301Z,11.35
2019-03-08T00:54:36.797Z,11.31
2019-03-08T00:55:19.064Z,11.23
2019-03-08T00:55:59.580Z,11.19
2019-03-08T00:56:40.061Z,11.19
2019-03-08T00:57:20.487Z,11.13
2019-03-08T00:58:03.934Z,11.21
2019-03-08T00:58:43.811Z,11.31
2019-03-08T00:59:24.374Z,11.33
2019-03-08T01:00:04.941Z,11.35
2019-03-08T01:00:45.731Z,11.3
2019-03-08T01:01:26.083Z,11.21
2019-03-08T01:02:07.150Z,11.21
2019-03-08T01:02:47.613Z,11.2
2019-03-08T01:03:28.144Z,11.21
2019-03-08T01:04:09.844Z,11.19
2019-03-08T01:04:52.358Z,11.33
2019-03-08T01:05:32.752Z,11.39
2019-03-08T01:06:13.158Z,11.36
2019-03-08T01:06:54.216Z,11.35
2019-03-08T01:07:35.372Z,11.24
2019-03-08T01:08:15.865Z,11.35
2019-03-08T01:08:56.315Z,11.31
2019-03-08T01:09:36.748Z,11.28
2019-03-08T01:10:17.269Z,11.27
2019-03-08T01:10:57.755Z,11.21
2019-03-08T01:11:38.162Z,11.23
2019-03-08T01:12:18.509Z,11.26
2019-03-08T01:12:58.996Z,11.19
2019-03-08T01:13:40.928Z,11.21
2019-03-08T01:14:22.003Z,11.19
2019-03-08T01:15:02.617Z,11.09
2019-03-08T01:15:43.128Z,11.17
2019-03-08T01:16:23.513Z,11.19
2019-03-08T01:17:04.006Z,11.12
2019-03-08T01:17:44.427Z,11.11
2019-03-08T01:18:25.711Z,11.11
2019-03-08T01:19:07.782Z,11.08
2019-03-08T01:19:52.301Z,11.12
2019-03-08T01:22:34.763Z,11.21
2019-03-08T01:23:17.096Z,11.12
2019-03-08T01:23:57.482Z,11.16
2019-03-08T01:24:39.708Z,11.09
2019-03-08T01:25:21.508Z,10.95
2019-03-08T01:26:00.297Z,10.88
2019-03-08T01:26:40.696Z,10.88
2019-03-08T01:27:21.064Z,10.88
2019-03-08T01:28:01.457Z,10.94
2019-03-08T01:28:41.897Z,10.94
2019-03-08T01:29:22.313Z,10.91
2019-03-08T01:30:02.705Z,10.72
2019-03-08T01:30:43.075Z,10.86
2019-03-08T01:31:25.424Z,10.91
2019-03-08T01:32:07.050Z,10.91
2019-03-08T01:32:49.983Z,10.86
2019-03-08T01:33:32.468Z,11.01
2019-03-08T01:34:12.841Z,10.95
2019-03-08T01:34:53.314Z,11.11
2019-03-08T01:35:35.536Z,11.09
2019-03-08T01:36:16.157Z,11.12
2019-03-08T01:36:56.587Z,11.06
2019-03-08T01:37:36.837Z,11.08
2019-03-08T01:38:19.077Z,11.08
2019-03-08T01:38:59.403Z,11.08
2019-03-08T01:39:42.821Z,11.21
2019-03-08T01:40:23.361Z,11.16
2019-03-08T01:41:04.231Z,11.12
2019-03-08T01:41:44.698Z,11.12
2019-03-08T01:42:25.035Z,11.11
2019-03-08T01:43:05.477Z,11.05
2019-03-08T01:43:46.217Z,11.12
2019-03-08T01:44:26.642Z,11.11
2019-03-08T01:45:07.023Z,11.19
2019-03-08T01:45:48.462Z,11.2
2019-03-08T01:46:29.851Z,11.12
2019-03-08T01:47:10.255Z,11.13
2019-03-08T01:47:50.651Z,11.2
2019-03-08T01:48:32.790Z,11.2
2019-03-08T01:49:13.411Z,11.21
2019-03-08T01:49:57.094Z,11.23
2019-03-08T01:50:38.120Z,11.23
2019-03-08T01:51:18.758Z,11.16
2019-03-08T01:51:59.788Z,11.16
2019-03-08T01:52:41.082Z,11.2
2019-03-08T01:53:23.279Z,11.19
2019-03-08T01:54:05.511Z,11.17
2019-03-08T01:54:46.121Z,11.2
2019-03-08T01:55:32.829Z,11.11
2019-03-08T01:56:13.378Z,11.17
2019-03-08T01:56:54.773Z,11.06
2019-03-08T01:57:35.075Z,11.03
2019-03-08T01:58:15.439Z,11.13
2019-03-08T01:58:55.891Z,11.19
2019-03-08T01:59:36.346Z,11.17
2019-03-08T02:00:16.841Z,11.12
2019-03-08T02:00:59.858Z,11.16
2019-03-08T02:01:40.485Z,11.17
2019-03-08T02:02:21.248Z,11.13
2019-03-08T02:03:03.251Z,11.13
2019-03-08T02:03:43.588Z,11.13
2019-03-08T02:04:23.946Z,11.17
2019-03-08T02:05:08.015Z,11.13
2019-03-08T02:05:50.255Z,11.19
2019-03-08T02:06:32.756Z,11.16
2019-03-08T02:07:13.094Z,11.24
2019-03-08T02:07:55.252Z,11.17
2019-03-08T02:08:35.759Z,11.23
2019-03-08T02:09:16.221Z,11.16
2019-03-08T02:09:56.650Z,11.09
2019-03-08T02:10:37.007Z,11.08
2019-03-08T02:11:17.378Z,11.17
2019-03-08T02:11:57.750Z,11.11
2019-03-08T02:12:39.091Z,11.16
2019-03-08T02:13:19.596Z,11.12
2019-03-08T02:14:00.200Z,11.16
2019-03-08T02:14:40.516Z,11.13
2019-03-08T02:15:20.951Z,11.03
2019-03-08T02:16:02.421Z,11.12
2019-03-08T02:16:42.768Z,11.08
2019-03-08T02:17:23.178Z,11.13
2019-03-08T02:18:03.618Z,11.19
2019-03-08T02:18:44.753Z,11.09
2019-03-08T02:19:26.059Z,10.91
2019-03-08T02:20:06.556Z,10.88
2019-03-08T02:20:47.156Z,10.9
2019-03-08T02:21:27.518Z,10.94
2019-03-08T02:22:09.695Z,11.02
2019-03-08T02:22:50.140Z,10.83
2019-03-08T02:23:30.529Z,10.83
2019-03-08T02:24:11.035Z,10.9
2019-03-08T02:24:52.101Z,10.93
2019-03-08T02:25:32.469Z,10.84
2019-03-08T02:26:12.959Z,10.86
2019-03-08T02:26:53.437Z,10.75
2019-03-08T02:27:35.527Z,10.62
2019-03-08T02:28:15.939Z,10.69
2019-03-08T02:28:57.273Z,10.7
2019-03-08T02:29:39.109Z,10.73
2019-03-08T02:30:18.095Z,10.73
2019-03-08T02:30:58.430Z,10.72
2019-03-08T02:31:38.996Z,10.87
2019-03-08T02:32:19.381Z,10.91
2019-03-08T02:33:00.004Z,10.91
2019-03-08T02:33:40.199Z,10.83
2019-03-08T02:34:20.665Z,10.86
2019-03-08T02:35:01.087Z,10.94
2019-03-08T02:35:41.468Z,10.84
2019-03-08T02:36:25.796Z,10.66
2019-03-08T02:37:06.173Z,10.69
2019-03-08T02:37:46.495Z,10.6
2019-03-08T02:38:26.905Z,10.58
2019-03-08T02:39:07.279Z,10.47
2019-03-08T02:39:48.746Z,10.55
2019-03-08T02:40:29.864Z,10.51
2019-03-08T02:41:11.486Z,10.55
2019-03-08T02:41:51.823Z,10.55
2019-03-08T02:42:32.193Z,10.54
2019-03-08T02:43:12.686Z,10.66
2019-03-08T02:43:53.945Z,10.7
2019-03-08T02:44:34.424Z,10.68
2019-03-08T02:45:15.679Z,10.7
2019-03-08T02:46:00.758Z,10.69
2019-03-08T02:46:42.864Z,10.57
2019-03-08T02:47:24.152Z,10.51
2019-03-08T02:48:04.538Z,10.49
2019-03-08T02:48:46.937Z,10.51
2019-03-08T02:49:27.506Z,10.55
2019-03-08T02:50:07.924Z,10.55
2019-03-08T02:50:48.312Z,10.54
2019-03-08T02:51:28.797Z,10.42
2019-03-08T02:52:11.758Z,10.57
2019-03-08T02:52:53.730Z,10.54
2019-03-08T02:53:34.198Z,10.55
2019-03-08T02:54:14.717Z,10.54
2019-03-08T02:54:55.174Z,10.51
2019-03-08T02:55:35.642Z,10.51
2019-03-08T02:56:17.046Z,10.6
2019-03-08T02:56:57.391Z,10.46
2019-03-08T02:57:39.354Z,10.49
2019-03-08T02:58:19.892Z,10.34
2019-03-08T02:59:00.227Z,10.36
2019-03-08T02:59:40.827Z,10.34
2019-03-08T03:00:21.144Z,10.38
2019-03-08T03:01:01.577Z,10.49
2019-03-08T03:01:42.091Z,10.42
2019-03-08T03:02:22.496Z,10.49
2019-03-08T03:03:05.847Z,10.42
2019-03-08T03:03:46.240Z,10.49
2019-03-08T03:04:27.650Z,10.42
2019-03-08T03:05:08.151Z,10.28
2019-03-08T03:05:49.843Z,10.25
2019-03-08T03:06:30.317Z,10.24
2019-03-08T03:07:11.620Z,10.34
2019-03-08T03:07:52.033Z,10.24
2019-03-08T03:08:32.403Z,10.29
2019-03-08T03:09:15.766Z,10.34
2019-03-08T03:09:58.187Z,10.36
2019-03-08T03:10:38.493Z,10.28
2019-03-08T03:11:19.014Z,10.29
2019-03-08T03:12:01.223Z,10.35
2019-03-08T03:12:41.645Z,10.28
2019-03-08T03:13:22.987Z,10.31
2019-03-08T03:14:03.637Z,10.25
2019-03-08T03:14:43.730Z,10.24
2019-03-08T03:15:26.019Z,10.14
2019-03-08T03:16:06.594Z,10.13
2019-03-08T03:16:47.758Z,10.16
2019-03-08T03:17:29.970Z,10.22
2019-03-08T03:18:10.319Z,10.2
2019-03-08T03:18:51.682Z,10.2
2019-03-08T03:19:31.995Z,10.25
2019-03-08T03:20:12.587Z,10.26
2019-03-08T03:20:52.858Z,10.25
2019-03-08T03:21:33.334Z,10.34
2019-03-08T03:22:13.633Z,10.35
2019-03-08T03:22:55.069Z,10.44
2019-03-08T03:23:37.281Z,10.42
2019-03-08T03:24:19.375Z,10.51
2019-03-08T03:25:02.266Z,10.49
2019-03-08T03:25:42.611Z,10.46
2019-03-08T03:26:23.994Z,10.43
2019-03-08T03:27:04.415Z,10.55
2019-03-08T03:27:44.829Z,10.49
2019-03-08T03:28:25.266Z,10.44
2019-03-08T03:29:05.677Z,10.46
2019-03-08T03:29:45.987Z,10.42
2019-03-08T03:30:28.708Z,10.54
2019-03-08T03:31:13.747Z,10.46
2019-03-08T03:31:54.110Z,10.46
2019-03-08T03:32:34.491Z,10.52
2019-03-08T03:33:16.366Z,10.6
2019-03-08T03:33:57.840Z,10.7
2019-03-08T03:34:39.069Z,10.68
2019-03-08T03:35:21.158Z,10.55
2019-03-08T03:36:01.544Z,10.49
2019-03-08T03:36:42.070Z,10.55
2019-03-08T03:37:23.558Z,10.57
2019-03-08T03:38:03.829Z,10.58
2019-03-08T03:38:44.335Z,10.62
2019-03-08T03:39:25.689Z,10.57
2019-03-08T03:40:06.252Z,10.57
2019-03-08T03:40:48.393Z,10.55
2019-03-08T03:41:28.658Z,10.46
2019-03-08T03:42:09.015Z,10.39
2019-03-08T03:42:50.353Z,10.35
2019-03-08T03:43:30.854Z,10.35
2019-03-08T03:44:11.142Z,10.26
2019-03-08T03:44:51.729Z,10.25
2019-03-08T03:45:32.534Z,10.26
2019-03-08T03:46:12.990Z,10.24
2019-03-08T03:46:55.307Z,10.26
2019-03-08T03:47:37.360Z,10.25
2019-03-08T03:48:17.915Z,10.31
2019-03-08T03:48:58.698Z,10.34
2019-03-08T03:49:40.006Z,10.38
2019-03-08T03:50:20.494Z,10.34
2019-03-08T03:51:02.066Z,10.32
2019-03-08T03:51:42.435Z,10.38
2019-03-08T03:52:23.013Z,10.34
2019-03-08T03:53:03.404Z,10.34
2019-03-08T03:53:43.764Z,10.28
2019-03-08T03:54:24.254Z,10.28
2019-03-08T03:55:06.522Z,10.24
2019-03-08T03:55:46.900Z,10.25
2019-03-08T03:56:27.379Z,10.26
2019-03-08T03:57:08.023Z,10.18
2019-03-08T03:57:48.392Z,10.25
2019-03-08T03:58:28.742Z,10.26
2019-03-08T03:59:09.130Z,10.32
2019-03-08T03:59:49.521Z,10.36
2019-03-08T04:00:31.893Z,10.38
2019-03-08T04:01:12.332Z,10.38
2019-03-08T04:01:52.699Z,10.39
2019-03-08T04:02:33.124Z,10.34
2019-03-08T04:03:13.474Z,10.25
2019-03-08T04:03:55.753Z,10.25
2019-03-08T04:04:37.442Z,10.26
2019-03-08T04:05:17.926Z,10.25
2019-03-08T04:05:58.219Z,10.24
2019-03-08T04:06:38.574Z,10.24
2019-03-08T04:07:19.012Z,10.22
2019-03-08T04:08:02.938Z,10.24
2019-03-08T04:08:43.370Z,10.28
2019-03-08T04:09:23.914Z,10.22
2019-03-08T04:10:06.033Z,10.25
2019-03-08T04:10:46.345Z,10.26
2019-03-08T04:11:28.472Z,10.28
2019-03-08T04:12:09.019Z,10.35
2019-03-08T04:12:49.414Z,10.24
2019-03-08T04:13:29.989Z,10.29
2019-03-08T04:14:10.342Z,10.26
2019-03-08T04:14:51.651Z,10.29
2019-03-08T04:15:33.994Z,10.28
2019-03-08T04:16:15.318Z,10.32
2019-03-08T04:16:56.055Z,10.22
2019-03-08T04:17:36.419Z,10.22
2019-03-08T04:18:18.878Z,10.2
2019-03-08T04:19:02.185Z,10.17
2019-03-08T04:19:43.541Z,10.14
2019-03-08T04:20:25.883Z,10.04
2019-03-08T04:21:06.838Z,10.06
2019-03-08T04:21:47.162Z,10.06
2019-03-08T04:22:27.730Z,10.02
2019-03-08T04:23:08.610Z,10.04
2019-03-08T04:23:50.741Z,10.13
2019-03-08T04:24:31.186Z,10.17
2019-03-08T04:25:12.588Z,10.16
2019-03-08T04:25:52.997Z,10.17
2019-03-08T04:26:35.361Z,10.25
2019-03-08T04:27:15.776Z,10.1
2019-03-08T05:06:20.077Z,8.31
2019-03-08T05:07:00.319Z,8.34
2019-03-08T05:07:41.006Z,8.29
2019-03-08T05:08:21.578Z,8.28
2019-03-08T05:09:02.187Z,8.21
2019-03-08T05:09:42.591Z,8.24
2019-03-08T05:10:23.079Z,8.32
2019-03-08T05:11:03.588Z,8.31
2019-03-08T05:11:44.045Z,8.27
2019-03-08T05:12:24.848Z,8.39
2019-03-08T05:13:05.398Z,8.31
2019-03-08T05:13:45.914Z,8.31
2019-03-08T05:14:26.421Z,8.39
2019-03-08T05:15:06.783Z,8.32
2019-03-08T05:15:47.238Z,8.28
2019-03-08T05:16:27.701Z,8.25
2019-03-08T05:17:08.162Z,8.36
2019-03-08T05:17:48.509Z,8.29
2019-03-08T05:18:28.900Z,8.29
2019-03-08T05:19:09.279Z,8.47
2019-03-08T05:19:49.692Z,8.54
2019-03-08T05:20:30.130Z,8.55
2019-03-08T05:21:11.441Z,8.5
2019-03-08T05:21:53.824Z,8.54
2019-03-08T05:22:34.237Z,8.6
2019-03-08T05:23:14.730Z,8.52
2019-03-08T05:23:55.210Z,8.54
2019-03-08T05:24:35.643Z,8.65
2019-03-08T05:25:16.219Z,8.58
2019-03-08T05:25:56.591Z,8.42
2019-03-08T05:26:37.850Z,8.4
2019-03-08T05:27:18.318Z,8.55
2019-03-08T05:27:58.731Z,8.49
2019-03-08T05:28:39.385Z,8.49
2019-03-08T05:29:19.959Z,8.6
2019-03-08T05:30:00.343Z,8.58
2019-03-08T05:30:40.679Z,8.61
2019-03-08T05:31:21.573Z,8.7
2019-03-08T05:32:02.112Z,8.65
2019-03-08T05:32:43.243Z,8.7
2019-03-08T05:33:23.520Z,8.71
2019-03-08T05:34:03.968Z,8.68
2019-03-08T05:34:44.335Z,8.68
2019-03-08T05:35:24.832Z,8.6
2019-03-08T05:36:05.197Z,8.61
2019-03-08T05:36:45.619Z,8.54
2019-03-08T05:37:26.144Z,8.61
2019-03-08T05:38:06.646Z,8.57
2019-03-08T05:38:47.085Z,8.65
2019-03-08T05:39:28.190Z,8.64
2019-03-08T05:40:08.324Z,8.76
2019-03-08T05:40:49.136Z,8.65
2019-03-08T05:41:31.292Z,8.71
2019-03-08T05:42:13.736Z,8.76
2019-03-08T05:42:56.334Z,8.71
2019-03-08T05:43:36.937Z,8.7
2019-03-08T05:44:18.176Z,8.55
2019-03-08T05:44:58.014Z,8.55
2019-03-08T05:45:38.517Z,8.63
2019-03-08T05:46:19.042Z,8.64
2019-03-08T05:46:59.523Z,8.76
2019-03-08T05:47:40.045Z,8.71
2019-03-08T05:48:20.438Z,8.7
2019-03-08T05:49:00.812Z,8.64
2019-03-08T05:49:41.261Z,8.78
2019-03-08T05:50:22.285Z,8.79
2019-03-08T05:51:02.957Z,8.71
2019-03-08T05:51:43.350Z,8.8
2019-03-08T05:52:24.035Z,8.79
2019-03-08T05:53:04.567Z,8.78
2019-03-08T05:53:45.020Z,8.78
2019-03-08T05:54:25.394Z,8.88
2019-03-08T05:55:05.776Z,8.96
2019-03-08T05:55:46.927Z,8.89
2019-03-08T05:56:27.451Z,8.86
2019-03-08T05:57:07.935Z,8.82
2019-03-08T05:57:48.337Z,8.93
2019-03-08T05:58:28.710Z,8.88
2019-03-08T05:59:09.793Z,8.88
2019-03-08T05:59:50.315Z,8.97
2019-03-08T06:00:34.383Z,8.96
2019-03-08T06:01:29.145Z,8.89
2019-03-08T06:02:09.498Z,8.98
2019-03-08T06:02:50.063Z,8.97
2019-03-08T06:03:30.894Z,8.93
2019-03-08T06:04:11.423Z,8.96
2019-03-08T06:04:52.009Z,9.1
2019-03-08T06:05:32.501Z,8.97
2019-03-08T06:06:12.963Z,9
2019-03-08T06:06:53.340Z,8.91
2019-03-08T06:07:33.667Z,9
2019-03-08T06:08:14.451Z,8.93
2019-03-08T06:08:56.987Z,8.93
2019-03-08T06:09:37.456Z,8.94
2019-03-08T06:10:18.307Z,9.03
2019-03-08T06:10:58.837Z,8.91
2019-03-08T06:11:40.813Z,8.98
2019-03-08T06:12:22.115Z,8.91
2019-03-08T06:13:04.691Z,8.94
2019-03-08T06:13:45.297Z,8.96
2019-03-08T06:14:25.991Z,9.08
2019-03-08T06:15:07.248Z,9.01
2019-03-08T06:15:48.603Z,9.08
2019-03-08T06:16:34.397Z,9.1
2019-03-08T06:17:15.817Z,9.08
2019-03-08T06:17:56.496Z,9.08
2019-03-08T06:18:38.136Z,9.06
2019-03-08T06:19:18.536Z,9.12
2019-03-08T06:19:59.566Z,9.12
2019-03-08T06:20:40.056Z,9.17
2019-03-08T06:21:24.316Z,9.16
2019-03-08T06:22:15.072Z,9.16
2019-03-08T06:22:56.941Z,9.23
2019-03-08T06:23:37.314Z,9.1
2019-03-08T06:24:17.819Z,9.12
2019-03-08T06:24:58.271Z,9.17
2019-03-08T06:25:38.976Z,9.31
2019-03-08T06:26:19.934Z,9.32
2019-03-08T06:27:01.752Z,9.31
2019-03-08T06:27:43.632Z,9.35
2019-03-08T06:28:25.763Z,9.32
2019-03-08T06:29:07.255Z,9.32
2019-03-08T06:29:51.208Z,9.34
2019-03-08T06:30:47.781Z,9.31
2019-03-08T06:31:29.073Z,9.42
2019-03-08T06:33:27.492Z,9.42
2019-03-08T06:35:41.744Z,9.34
2019-03-08T06:36:34.242Z,9.4
2019-03-08T06:37:28.079Z,9.42
2019-03-08T06:38:21.666Z,9.44
2019-03-08T06:39:14.772Z,9.41
2019-03-08T06:40:06.975Z,9.44
2019-03-08T06:41:03.274Z,9.45
2019-03-08T06:42:02.663Z,9.41
2019-03-08T06:42:57.089Z,9.58
2019-03-08T06:43:50.326Z,9.52
2019-03-08T06:44:42.350Z,9.6
2019-03-08T06:45:35.364Z,9.65
2019-03-08T06:46:31.862Z,9.7
2019-03-08T06:47:31.194Z,9.63
2019-03-08T06:48:28.432Z,9.55
2019-03-08T06:49:18.595Z,9.7
2019-03-08T06:49:59.314Z,9.63
2019-03-08T06:50:39.724Z,9.67
2019-03-08T06:51:20.311Z,9.6
2019-03-08T06:52:00.960Z,9.6
2019-03-08T06:52:41.224Z,9.59
2019-03-08T06:53:21.734Z,9.53
2019-03-08T06:54:03.137Z,9.53
2019-03-08T06:54:43.897Z,9.56
2019-03-08T06:55:25.397Z,9.42
2019-03-08T06:56:05.943Z,9.49
2019-03-08T06:56:47.615Z,9.5
2019-03-08T06:57:35.235Z,9.58
2019-03-08T06:58:25.099Z,9.49
2019-03-08T06:59:07.204Z,9.55
2019-03-08T06:59:48.354Z,9.52
2019-03-08T07:00:29.392Z,9.55
2019-03-08T07:02:34.283Z,9.53
2019-03-08T07:04:26.164Z,9.56
2019-03-08T07:05:23.212Z,9.58
2019-03-08T07:06:18.709Z,9.56
2019-03-08T07:07:11.388Z,9.73
2019-03-08T07:08:08.564Z,9.78
2019-03-08T07:09:04.193Z,9.75
2019-03-08T07:10:06.039Z,9.85
2019-03-08T07:10:54.903Z,9.85
2019-03-08T07:11:48.942Z,9.88
2019-03-08T07:12:30.745Z,9.89
2019-03-08T07:13:12.167Z,9.78
2019-03-08T07:15:15.809Z,9.88
2019-03-08T07:15:58.219Z,9.95
2019-03-08T07:16:38.807Z,9.86
2019-03-08T07:17:20.536Z,9.75
2019-03-08T07:18:01.673Z,9.78
2019-03-08T07:18:43.831Z,9.75
2019-03-08T07:19:24.360Z,9.67
2019-03-08T07:20:04.786Z,9.77
2019-03-08T07:20:45.220Z,9.86
2019-03-08T07:21:25.760Z,9.78
2019-03-08T07:22:06.450Z,9.77
2019-03-08T07:22:46.983Z,9.85
2019-03-08T07:23:28.336Z,9.88
2019-03-08T07:24:09.700Z,9.98
2019-03-08T07:24:52.158Z,9.98
2019-03-08T07:25:32.104Z,9.98
2019-03-08T07:26:12.526Z,9.96
2019-03-08T07:26:52.943Z,10.06
2019-03-08T07:27:33.465Z,9.98
2019-03-08T07:28:14.105Z,10.07
2019-03-08T07:28:55.243Z,10.1
2019-03-08T07:29:35.694Z,10.09
2019-03-08T07:30:33.671Z,9.99
2019-03-08T07:31:13.403Z,10.04
2019-03-08T07:31:54.046Z,9.99
2019-03-08T07:32:35.754Z,10.09
2019-03-08T07:33:17.154Z,10.09
2019-03-08T07:33:59.034Z,10.11
2019-03-08T07:34:39.729Z,10.11
2019-03-08T07:35:21.309Z,10.17
2019-03-08T07:36:03.162Z,10.22
2019-03-08T07:36:43.627Z,10.22
2019-03-08T07:37:24.052Z,10.14
2019-03-08T07:38:05.353Z,10.25
2019-03-08T07:38:46.980Z,10.17
2019-03-08T07:39:27.383Z,10.09
2019-03-08T07:40:08.021Z,10.04
2019-03-08T07:40:48.548Z,10.06
2019-03-08T07:41:29.177Z,10.06
2019-03-08T07:42:10.588Z,10.01
2019-03-08T07:42:53.141Z,10.09
2019-03-08T07:44:42.420Z,10.25
2019-03-08T07:45:32.008Z,10.34
2019-03-08T07:46:12.989Z,10.36
2019-03-08T07:46:54.177Z,10.46
2019-03-08T07:47:37.531Z,10.51
2019-03-08T07:48:19.832Z,10.63
2019-03-08T07:49:01.140Z,10.58
2019-03-08T07:49:58.246Z,10.52
2019-03-08T07:50:44.543Z,10.58
2019-03-08T07:51:25.004Z,10.58
2019-03-08T07:52:05.452Z,10.55
2019-03-08T07:52:46.877Z,10.54
2019-03-08T07:53:29.436Z,10.54
2019-03-08T07:54:09.984Z,10.43
2019-03-08T07:54:53.026Z,10.55
2019-03-08T07:55:33.180Z,10.49
2019-03-08T07:56:13.755Z,10.6
2019-03-08T07:56:54.341Z,10.6
2019-03-08T07:57:36.660Z,10.58
2019-03-08T07:58:16.856Z,10.66
2019-03-08T07:59:00.092Z,10.6
2019-03-08T07:59:43.326Z,10.86
2019-03-08T08:01:51.913Z,11.02
2019-03-08T08:02:32.559Z,11.09
2019-03-08T08:03:13.343Z,11.06
2019-03-08T08:03:53.699Z,11.16
2019-03-08T08:04:35.284Z,11.03
2019-03-08T08:05:16.190Z,11.17
2019-03-08T08:05:58.638Z,11.13
2019-03-08T08:06:41.669Z,11.11
2019-03-08T08:07:24.030Z,11.09
2019-03-08T08:08:09.159Z,11.12
2019-03-08T08:08:51.755Z,11.09
2019-03-08T08:09:31.218Z,11.19
2019-03-08T08:10:13.204Z,11.21
2019-03-08T08:10:52.082Z,11.16
2019-03-08T08:11:37.036Z,11.23
2019-03-08T08:12:17.465Z,11.21
2019-03-08T08:13:00.190Z,11.28
2019-03-08T08:13:40.616Z,11.23
2019-03-08T08:14:24.460Z,11.3
2019-03-08T08:15:05.830Z,11.26
2019-03-08T08:15:47.993Z,11.33
2019-03-08T08:16:35.600Z,11.28
2019-03-08T08:17:26.503Z,11.39
2019-03-08T08:18:08.974Z,11.36
2019-03-08T08:18:49.391Z,11.57
2019-03-08T08:19:33.633Z,11.59
2019-03-08T08:20:17.446Z,11.6
2019-03-08T08:20:58.706Z,11.63
2019-03-08T08:21:44.489Z,11.66
2019-03-08T08:22:24.930Z,11.62
2019-03-08T08:23:07.103Z,11.6
2019-03-08T08:23:48.466Z,11.62
2019-03-08T08:24:30.846Z,11.75
2019-03-08T08:25:11.335Z,11.75
2019-03-08T08:25:53.430Z,11.79
2019-03-08T08:26:32.855Z,12.01
2019-03-08T08:27:15.134Z,12.05
2019-03-08T08:28:13.960Z,12.12
2019-03-08T08:28:58.774Z,12.26
2019-03-08T08:29:52.444Z,12.34
2019-03-08T08:30:37.606Z,12.41
2019-03-08T08:31:18.335Z,12.46
2019-03-08T08:32:01.793Z,12.46
2019-03-08T08:32:44.295Z,12.43
2019-03-08T08:33:30.190Z,12.55
2019-03-08T08:34:12.118Z,12.54
2019-03-08T08:34:51.486Z,12.56
2019-03-08T08:35:37.758Z,12.56
2019-03-08T08:36:22.193Z,12.44
2019-03-08T08:37:24.162Z,12.56
2019-03-08T08:38:04.651Z,12.63
2019-03-08T08:38:49.815Z,12.66
2019-03-08T08:39:31.242Z,12.63
2019-03-08T08:40:13.466Z,12.59
2019-03-08T08:40:57.617Z,12.55
2019-03-08T08:42:56.636Z,12.69
2019-03-08T08:44:01.518Z,12.62
2019-03-08T08:45:02.442Z,12.69
2019-03-08T08:46:01.440Z,12.56
2019-03-08T08:46:59.114Z,12.62
2019-03-08T08:47:59.606Z,12.61
2019-03-08T08:48:59.921Z,12.69
2019-03-08T08:49:57.992Z,12.62
2019-03-08T08:50:51.504Z,12.74
2019-03-08T08:51:50.915Z,12.66
2019-03-08T08:52:49.880Z,12.56
2019-03-08T08:53:53.650Z,12.48
2019-03-08T08:54:51.734Z,12.38
2019-03-08T08:57:08.223Z,12.3
2019-03-08T08:58:44.823Z,12.3
2019-03-08T08:59:40.943Z,12.33
2019-03-08T09:00:41.680Z,12.33
2019-03-08T09:01:37.865Z,12.37
2019-03-08T09:02:32.792Z,12.34
2019-03-08T09:03:26.454Z,12.4
2019-03-08T09:04:19.485Z,12.31
2019-03-08T09:05:12.445Z,12.4
2019-03-08T09:06:06.410Z,12.33
2019-03-08T09:10:22.239Z,12.22
2019-03-08T09:11:16.189Z,12.12
2019-03-08T09:12:13.060Z,12.01
2019-03-08T09:13:07.332Z,12.11
2019-03-08T09:14:02.066Z,12.12
2019-03-08T09:14:55.604Z,12.04
2019-03-08T09:15:58.127Z,12.12
2019-03-08T09:16:57.622Z,12.12
2019-03-08T09:18:04.941Z,12.11
2019-03-08T09:19:03.515Z,12.08
2019-03-08T09:19:57.079Z,12.08
2019-03-08T09:20:49.528Z,11.97
2019-03-08T09:21:47.525Z,12.04
2019-03-08T09:22:42.228Z,11.98
2019-03-08T09:23:36.707Z,12.12
2019-03-08T09:25:42.102Z,12.25
2019-03-08T09:26:34.816Z,12.3
2019-03-08T09:27:27.899Z,12.55
2019-03-08T09:28:22.871Z,12.71
2019-03-08T09:29:17.660Z,12.84
2019-03-08T09:30:11.444Z,13.01
2019-03-08T09:31:10.877Z,13.24
2019-03-08T09:32:07.502Z,13.47
2019-03-08T09:33:02.749Z,13.66
2019-03-08T09:34:03.210Z,14.04
2019-03-08T09:34:58.620Z,14.17
2019-03-08T09:35:52.030Z,14.38
2019-03-08T09:36:45.375Z,14.59
2019-03-08T09:39:38.218Z,15.03
2019-03-08T09:43:07.447Z,15.85
2019-03-08T09:43:51.335Z,16.1
2019-03-08T09:44:35.524Z,16.4
2019-03-08T09:45:18.971Z,16.42
2019-03-08T09:46:01.566Z,16.51
2019-03-08T09:46:46.911Z,16.65
2019-03-08T09:47:28.487Z,16.69
2019-03-08T09:48:08.913Z,16.75
2019-03-08T09:48:49.309Z,16.81
2019-03-08T09:49:31.487Z,16.78
2019-03-08T09:50:12.344Z,16.63
2019-03-08T09:50:54.259Z,16.63
2019-03-08T09:51:34.683Z,16.69
2019-03-08T09:52:16.063Z,16.7
2019-03-08T09:53:00.240Z,16.77
2019-03-08T09:53:44.306Z,16.84
2019-03-08T09:54:25.721Z,16.92
2019-03-08T09:55:09.723Z,17.12
2019-03-08T09:55:50.165Z,17.17
2019-03-08T09:56:30.642Z,17.28
2019-03-08T09:57:13.743Z,17.32
2019-03-08T09:57:55.702Z,17.12
2019-03-08T09:58:36.088Z,17
2019-03-08T09:59:16.675Z,16.98
2019-03-08T09:59:58.015Z,16.96
2019-03-08T10:00:42.377Z,16.95
2019-03-08T10:01:23.080Z,17.02
2019-03-08T10:02:04.774Z,16.91
2019-03-08T10:02:45.958Z,16.96
2019-03-08T10:03:30.592Z,16.96
2019-03-08T10:04:10.941Z,16.96
2019-03-08T10:05:02.066Z,17.09
2019-03-08T10:05:42.503Z,17.2
2019-03-08T10:06:24.678Z,17.07
2019-03-08T10:07:05.322Z,17.09
2019-03-08T10:07:45.689Z,17.12
2019-03-08T10:08:38.886Z,17.27
2019-03-08T10:18:25.641Z,18.13
2019-03-08T10:20:50.920Z,17.99
2019-03-08T10:21:31.317Z,17.99
2019-03-08T10:22:12.799Z,17.73
2019-03-08T10:22:53.307Z,17.54
2019-03-08T10:23:34.550Z,17.36
2019-03-08T10:24:15.158Z,17.27
2019-03-08T10:24:59.429Z,17.2
2019-03-08T10:25:39.868Z,16.84
2019-03-08T10:26:20.264Z,16.77
2019-03-08T10:27:00.693Z,16.6
2019-03-08T10:27:41.048Z,16.54
2019-03-08T10:28:31.168Z,16.63
2019-03-08T11:06:29.427Z,15.18
2019-03-08T11:07:12.813Z,15.15
2019-03-08T11:07:53.795Z,14.97